Terminal Aerodrome Forecast
Issued by NWS St Louis, MO

Home | Current Version | Previous Version | Text Only | Print | Product List | Glossary On
Versions: 1 2 3 4 5 6 7 8 9 10 11 12 13 14 15 16 17
000
FTUS43 KLSX 202343
TAFCOU
TAF
KCOU 202343Z 2100/2124 22012KT P6SM -SHRA VCTS OVC040CB
      TEMPO 2100/2102 3SM SHRA OVC025
     FM210200 23006KT P6SM -SHRA OVC040
     FM210400 24005KT P6SM OVC040
     FM211200 30005KT P6SM SCT040 BKN110
     FM211600 34007KT P6SM SCT130=

USA.gov is the U.S. government's official web portal to all federal, state and local government web resources and services.